Time;durP1;ratioP1;P1;durP2;ratioP2;P2;SDS_P1;SDS_P2;PMS_P1;PMS_P2;Temp;Humidity;BMP_temperature;BMP_pressure;BME280_temperature;BME280_humidity;BME280_pressure;Samples;Min_cycle;Max_cycle;Signal;HPM_P1;HPM_P2
2022/06/27 00:01:44;;;;;;;5.77;5.17;;;22.60;99.90;;;;;;5010618;28;20463;-54
2022/06/27 00:04:11;;;;;;;5.53;5.03;;;22.50;99.90;;;;;;5018001;28;20485;-54
2022/06/27 00:06:39;;;;;;;6.20;5.70;;;22.50;99.90;;;;;;5016268;28;20434;-54
2022/06/27 00:09:06;;;;;;;5.87;5.37;;;22.40;99.90;;;;;;5016880;28;20427;-55
2022/06/27 00:11:34;;;;;;;6.40;5.70;;;22.50;99.90;;;;;;5017110;28;20725;-55
2022/06/27 00:14:01;;;;;;;7.73;4.73;;;22.50;99.90;;;;;;5015148;28;20760;-55
2022/06/27 00:16:28;;;;;;;6.40;5.80;;;22.50;99.90;;;;;;5017945;28;20438;-54
2022/06/27 00:19:17;;;;;;;6.13;5.53;;;22.50;99.90;;;;;;5014344;28;20586;-54
2022/06/27 00:21:44;;;;;;;6.93;6.43;;;22.40;99.90;;;;;;5018298;28;20504;-54
2022/06/27 00:24:12;;;;;;;4.47;4.13;;;22.30;99.90;;;;;;5015035;28;20477;-55
2022/06/27 00:26:39;;;;;;;7.40;5.00;;;22.10;99.90;;;;;;5017794;28;20602;-55
2022/06/27 00:29:10;;;;;;;5.87;5.30;;;22.00;99.90;;;;;;5013772;28;20584;-56
2022/06/27 00:31:37;;;;;;;5.40;4.90;;;22.00;99.90;;;;;;5016425;28;20484;-55
2022/06/27 00:34:04;;;;;;;4.77;4.37;;;21.90;99.90;;;;;;5014352;28;20727;-54
2022/06/27 00:36:32;;;;;;;8.40;5.80;;;21.80;99.90;;;;;;5020061;28;20892;-57
2022/06/27 00:39:00;;;;;;;6.20;4.90;;;21.80;99.90;;;;;;5022948;28;20476;-53
2022/06/27 00:41:27;;;;;;;6.13;5.53;;;21.80;99.90;;;;;;5019058;28;20449;-55
2022/06/27 00:43:54;;;;;;;5.70;5.17;;;21.80;99.90;;;;;;5022079;28;20480;-55
2022/06/27 00:46:21;;;;;;;5.57;4.87;;;21.70;99.90;;;;;;5018128;28;20435;-55
2022/06/27 00:48:49;;;;;;;5.83;5.10;;;21.70;99.90;;;;;;5020715;28;20446;-53
2022/06/27 00:51:16;;;;;;;8.30;6.10;;;21.70;99.90;;;;;;5016986;28;20545;-53
2022/06/27 00:53:44;;;;;;;6.10;4.57;;;21.70;99.90;;;;;;5022846;28;20463;-55
2022/06/27 00:56:11;;;;;;;6.03;5.53;;;21.70;99.90;;;;;;5017967;28;20440;-53
2022/06/27 00:58:39;;;;;;;5.73;5.20;;;21.60;99.90;;;;;;5019807;28;20437;-54
2022/06/27 01:01:06;;;;;;;5.30;4.90;;;21.60;99.90;;;;;;5016650;28;20424;-53
2022/06/27 01:03:37;;;;;;;6.37;5.20;;;21.50;99.90;;;;;;5018554;28;20474;-51
2022/06/27 01:06:04;;;;;;;5.23;4.90;;;21.50;99.90;;;;;;5022562;28;20461;-52
2022/06/27 01:08:32;;;;;;;6.43;5.93;;;21.40;99.90;;;;;;5017176;28;20448;-51
2022/06/27 01:10:59;;;;;;;5.90;5.50;;;21.30;99.90;;;;;;5015942;28;20784;-56
2022/06/27 01:13:29;;;;;;;6.50;5.90;;;21.30;99.90;;;;;;5017106;28;20444;-55
2022/06/27 01:15:56;;;;;;;5.67;5.17;;;21.30;99.90;;;;;;5021347;28;20442;-53
2022/06/27 01:18:24;;;;;;;5.10;4.70;;;21.30;99.90;;;;;;5016674;28;20601;-53
2022/06/27 01:20:51;;;;;;;5.77;5.23;;;21.30;99.90;;;;;;5021603;28;20623;-54
2022/06/27 01:23:18;;;;;;;8.20;5.13;;;21.30;99.90;;;;;;5020440;28;20492;-54
2022/06/27 01:25:46;;;;;;;5.63;5.17;;;21.30;99.90;;;;;;5022404;28;20493;-53
2022/06/27 01:28:13;;;;;;;5.80;5.30;;;21.20;99.90;;;;;;5022055;28;20436;-52
2022/06/27 01:30:40;;;;;;;5.77;5.27;;;21.10;99.90;;;;;;5016692;28;20509;-54
2022/06/27 01:33:07;;;;;;;6.93;6.30;;;21.10;99.90;;;;;;5019989;28;20464;-54
2022/06/27 01:35:34;;;;;;;5.27;4.87;;;21.20;99.90;;;;;;5020171;28;20801;-53
2022/06/27 01:38:02;;;;;;;6.63;5.97;;;21.20;99.90;;;;;;5017263;28;20414;-52
2022/06/27 01:40:29;;;;;;;5.97;5.37;;;21.00;99.90;;;;;;5022294;28;20493;-53
2022/06/27 01:42:57;;;;;;;8.03;5.63;;;20.90;99.90;;;;;;5018343;28;20480;-54
2022/06/27 01:45:24;;;;;;;5.70;5.20;;;20.90;99.90;;;;;;5019643;28;20549;-56
2022/06/27 01:47:51;;;;;;;5.43;4.93;;;20.90;99.90;;;;;;5017692;28;20411;-55
2022/06/27 01:50:20;;;;;;;8.00;5.07;;;21.00;99.90;;;;;;5019888;28;20419;-55
2022/06/27 01:52:49;;;;;;;5.57;5.07;;;20.90;99.90;;;;;;5010994;28;20465;-55
2022/06/27 01:55:20;;;;;;;6.87;5.67;;;20.90;99.90;;;;;;5018346;28;20440;-54
2022/06/27 01:57:48;;;;;;;5.30;4.93;;;20.80;99.90;;;;;;5013606;28;20486;-55
2022/06/27 02:00:16;;;;;;;6.27;5.70;;;20.80;99.90;;;;;;5017738;28;20610;-52
2022/06/27 02:02:44;;;;;;;6.30;5.80;;;20.80;99.90;;;;;;5021222;28;20643;-53
2022/06/27 02:05:12;;;;;;;6.40;5.93;;;20.80;99.90;;;;;;5018131;28;20454;-54
2022/06/27 02:07:42;;;;;;;5.87;5.37;;;20.70;99.90;;;;;;5020134;28;20436;-56
2022/06/27 02:10:09;;;;;;;6.57;5.97;;;20.80;99.90;;;;;;5017028;28;20461;-53
2022/06/27 02:12:37;;;;;;;6.43;5.47;;;20.80;99.90;;;;;;5021668;28;20426;-55
2022/06/27 02:15:06;;;;;;;5.83;5.33;;;20.80;99.90;;;;;;5021601;28;20685;-52
2022/06/27 02:17:33;;;;;;;6.23;5.70;;;20.80;99.90;;;;;;5014088;28;20711;-54
2022/06/27 02:20:02;;;;;;;6.80;4.87;;;20.80;99.90;;;;;;5021607;28;20411;-55
2022/06/27 02:22:29;;;;;;;6.17;5.57;;;20.80;99.90;;;;;;5017799;28;20639;-55
2022/06/27 02:24:57;;;;;;;6.50;6.00;;;20.80;99.90;;;;;;5020540;28;20826;-52
2022/06/27 02:27:24;;;;;;;7.03;6.33;;;20.60;99.90;;;;;;5017764;28;20486;-54
2022/06/27 02:29:52;;;;;;;6.60;6.00;;;20.60;99.90;;;;;;5020023;28;20422;-54
2022/06/27 02:32:19;;;;;;;6.40;5.80;;;20.60;99.90;;;;;;5021428;28;20869;-55
2022/06/27 02:34:49;;;;;;;5.80;5.17;;;20.60;99.90;;;;;;5021251;28;20421;-51
2022/06/27 02:37:18;;;;;;;9.40;6.80;;;20.60;99.90;;;;;;5018943;28;20462;-52
2022/06/27 02:39:48;;;;;;;5.47;5.07;;;20.40;99.90;;;;;;5021770;28;20454;-52
2022/06/27 02:42:20;;;;;;;6.27;5.77;;;20.30;99.90;;;;;;5018247;28;20425;-54
2022/06/27 02:44:48;;;;;;;5.20;4.70;;;20.50;99.90;;;;;;5020508;28;20812;-52
2022/06/27 02:47:20;;;;;;;5.37;4.97;;;20.50;99.90;;;;;;5016810;28;20810;-54
2022/06/27 02:49:48;;;;;;;6.00;5.60;;;20.40;99.90;;;;;;5019648;28;20574;-53
2022/06/27 02:52:23;;;;;;;5.80;5.30;;;20.40;99.90;;;;;;5015856;28;20669;-54
2022/06/27 02:55:00;;;;;;;7.13;5.80;;;20.40;99.90;;;;;;5019303;28;20743;-51
2022/06/27 02:57:46;;;;;;;6.10;5.60;;;20.40;99.90;;;;;;5011765;28;20655;-55
2022/06/27 03:00:16;;;;;;;6.53;5.93;;;20.40;99.90;;;;;;5014983;28;20421;-52
2022/06/27 03:02:44;;;;;;;6.10;5.63;;;20.40;99.90;;;;;;5017161;28;20568;-51
2022/06/27 03:05:12;;;;;;;7.30;6.60;;;20.50;99.90;;;;;;5017931;28;20480;-57
2022/06/27 03:07:41;;;;;;;7.60;5.73;;;20.50;99.90;;;;;;5018643;28;20446;-55
2022/06/27 03:10:10;;;;;;;6.77;6.27;;;20.40;99.90;;;;;;5017931;28;20412;-53
2022/06/27 03:12:38;;;;;;;8.03;6.33;;;20.50;99.90;;;;;;5023520;28;20460;-53
2022/06/27 03:15:05;;;;;;;7.23;6.53;;;20.40;99.90;;;;;;5020542;28;20646;-50
2022/06/27 03:17:33;;;;;;;6.30;5.87;;;20.40;99.90;;;;;;5020635;28;20449;-54
2022/06/27 03:20:00;;;;;;;6.57;6.00;;;20.40;99.90;;;;;;5016513;28;20418;-56
2022/06/27 03:22:28;;;;;;;5.67;5.17;;;20.50;99.90;;;;;;5018464;28;20784;-55
2022/06/27 03:24:55;;;;;;;6.57;5.97;;;20.50;99.90;;;;;;5015546;28;20477;-56
2022/06/27 03:27:22;;;;;;;6.03;5.43;;;20.60;99.90;;;;;;5017012;28;20410;-56
2022/06/27 03:29:49;;;;;;;6.23;5.63;;;20.80;99.90;;;;;;5021558;28;20415;-55
2022/06/27 03:32:17;;;;;;;8.13;6.07;;;21.10;99.90;;;;;;5022387;28;20470;-55
2022/06/27 03:34:44;;;;;;;6.67;6.17;;;21.50;99.90;;;;;;5015941;28;20429;-55
2022/06/27 03:37:12;;;;;;;6.57;6.07;;;21.90;99.90;;;;;;5017567;28;20461;-55
2022/06/27 03:39:39;;;;;;;6.00;5.50;;;22.30;99.90;;;;;;5019368;28;20438;-53
2022/06/27 03:42:06;;;;;;;5.90;5.40;;;22.60;99.90;;;;;;5016016;28;20875;-53
2022/06/27 03:44:33;;;;;;;5.50;5.10;;;23.00;99.90;;;;;;5018481;28;20765;-54
2022/06/27 03:47:00;;;;;;;5.83;5.43;;;23.20;99.90;;;;;;5015229;28;20465;-56
2022/06/27 03:52:13;;;;;;;6.67;6.07;;;23.20;99.90;;;;;;5014407;28;20501;-55
2022/06/27 03:54:40;;;;;;;5.57;5.07;;;23.20;99.90;;;;;;5017267;28;20496;-55
2022/06/27 03:57:07;;;;;;;6.60;6.00;;;23.10;99.90;;;;;;5019329;28;20408;-55
2022/06/27 03:59:38;;;;;;;6.20;5.60;;;22.90;99.90;;;;;;5015156;28;20455;-55
2022/06/27 04:02:05;;;;;;;7.30;6.60;;;22.70;99.90;;;;;;5019107;28;20509;-53
2022/06/27 04:04:33;;;;;;;8.70;6.50;;;22.60;99.90;;;;;;5013703;28;20466;-51
2022/06/27 04:07:02;;;;;;;5.87;5.37;;;22.60;99.90;;;;;;5012892;28;20784;-55
2022/06/27 04:09:30;;;;;;;5.83;5.33;;;22.70;99.90;;;;;;5012069;28;20435;-55
2022/06/27 04:11:57;;;;;;;5.70;5.23;;;22.70;99.90;;;;;;5017833;28;20824;-55
2022/06/27 04:14:25;;;;;;;6.97;5.47;;;22.60;99.90;;;;;;5018834;28;20430;-57
2022/06/27 04:16:52;;;;;;;6.57;5.30;;;22.60;99.90;;;;;;5015804;28;20438;-54
2022/06/27 04:19:19;;;;;;;6.17;5.67;;;22.50;99.90;;;;;;5018705;28;20442;-53
2022/06/27 04:21:46;;;;;;;5.73;5.20;;;22.60;99.90;;;;;;5012972;28;20463;-52
2022/06/27 04:24:14;;;;;;;6.67;6.03;;;22.60;99.90;;;;;;5018584;28;20447;-57
2022/06/27 04:26:41;;;;;;;7.23;5.03;;;22.60;99.90;;;;;;5011933;28;20462;-57
2022/06/27 04:29:09;;;;;;;6.20;5.60;;;22.60;99.90;;;;;;5018823;28;20492;-53
2022/06/27 04:31:36;;;;;;;6.80;6.17;;;22.60;99.90;;;;;;5038638;23;20466;-46
2022/06/27 04:34:04;;;;;;;9.13;6.00;;;22.70;99.90;;;;;;5033528;28;20461;-46
2022/06/27 04:36:32;;;;;;;6.13;5.73;;;22.80;99.90;;;;;;5035416;28;20436;-49
2022/06/27 04:38:59;;;;;;;9.37;5.90;;;22.80;99.90;;;;;;5039224;28;20418;-45
2022/06/27 04:41:26;;;;;;;10.53;7.53;;;22.70;99.90;;;;;;5039259;28;20408;-48
2022/06/27 04:43:56;;;;;;;9.63;6.10;;;22.70;99.90;;;;;;5018004;28;20409;-45
2022/06/27 04:46:24;;;;;;;8.80;5.50;;;22.80;99.90;;;;;;5018916;28;21009;-45
2022/06/27 04:48:52;;;;;;;7.23;5.67;;;22.90;99.90;;;;;;5018310;28;20750;-44
2022/06/27 04:51:19;;;;;;;6.40;5.90;;;23.00;99.90;;;;;;5019010;28;20435;-44
2022/06/27 04:53:48;;;;;;;6.00;5.50;;;23.10;99.90;;;;;;5018976;28;20440;-48
2022/06/27 04:56:16;;;;;;;7.47;6.77;;;23.10;99.90;;;;;;5018606;28;20827;-45
2022/06/27 04:58:43;;;;;;;6.37;5.87;;;23.10;99.90;;;;;;5019353;28;20421;-45
2022/06/27 05:01:11;;;;;;;14.03;6.60;;;23.20;99.90;;;;;;5019075;28;20417;-49
2022/06/27 05:03:38;;;;;;;7.70;6.90;;;23.30;99.90;;;;;;5019294;28;20458;-46
2022/06/27 05:06:06;;;;;;;6.17;5.57;;;23.40;99.90;;;;;;5019232;28;20501;-48
2022/06/27 05:08:39;;;;;;;9.30;7.03;;;23.40;99.90;;;;;;5021015;28;20413;-52
2022/06/27 05:11:06;;;;;;;5.67;5.10;;;23.60;99.90;;;;;;5022482;28;20763;-45
2022/06/27 05:13:33;;;;;;;7.00;6.37;;;23.70;99.90;;;;;;5019476;28;20685;-47
2022/06/27 05:16:00;;;;;;;7.63;6.87;;;23.80;99.90;;;;;;5019432;28;20438;-50
2022/06/27 05:18:28;;;;;;;14.53;7.10;;;23.90;99.90;;;;;;5018749;28;20505;-48
2022/06/27 05:20:55;;;;;;;9.70;6.03;;;23.90;99.90;;;;;;5022018;28;20481;-46
2022/06/27 05:23:22;;;;;;;6.23;5.70;;;24.00;99.90;;;;;;5021869;28;20801;-47
2022/06/27 05:25:50;;;;;;;8.43;5.20;;;24.20;99.90;;;;;;5022771;28;20469;-48
2022/06/27 05:28:17;;;;;;;6.70;5.20;;;24.40;99.90;;;;;;5022671;28;20438;-47
2022/06/27 05:30:45;;;;;;;7.27;6.57;;;24.40;99.90;;;;;;5022684;28;20458;-46
2022/06/27 05:33:13;;;;;;;7.80;5.87;;;24.60;99.90;;;;;;5021611;28;20484;-45
2022/06/27 05:35:40;;;;;;;15.90;7.47;;;24.70;99.90;;;;;;5021894;28;20445;-48
2022/06/27 05:38:08;;;;;;;6.07;5.27;;;24.80;99.90;;;;;;5022607;28;20439;-49
2022/06/27 05:40:36;;;;;;;8.93;6.40;;;25.00;99.90;;;;;;5021110;28;20505;-47
2022/06/27 05:43:04;;;;;;;7.57;4.70;;;25.20;99.90;;;;;;5022360;28;20681;-48
2022/06/27 05:45:31;;;;;;;6.83;5.50;;;25.20;99.90;;;;;;5022275;28;20488;-47
2022/06/27 05:48:00;;;;;;;5.80;5.20;;;25.30;99.90;;;;;;5022550;28;20511;-45
2022/06/27 05:50:28;;;;;;;5.30;4.80;;;25.40;99.90;;;;;;5022630;28;20659;-45
2022/06/27 05:52:59;;;;;;;19.80;6.43;;;25.50;99.90;;;;;;5022183;28;20465;-46
2022/06/27 05:55:32;;;;;;;5.80;5.30;;;25.70;99.90;;;;;;5022915;28;20505;-49
2022/06/27 05:58:02;;;;;;;8.73;5.63;;;25.80;99.90;;;;;;5021964;28;20765;-50
2022/06/27 06:00:30;;;;;;;5.80;5.27;;;26.00;99.90;;;;;;5021999;28;20441;-49
2022/06/27 06:02:58;;;;;;;6.33;4.70;;;25.90;99.90;;;;;;5016915;28;20786;-49
2022/06/27 06:05:25;;;;;;;5.43;4.93;;;25.70;99.90;;;;;;5021943;28;20691;-45
2022/06/27 06:07:52;;;;;;;9.17;5.70;;;25.60;99.90;;;;;;5021947;28;20442;-45
2022/06/27 06:10:21;;;;;;;7.17;6.47;;;25.90;99.90;;;;;;5032786;28;20760;-48
2022/06/27 06:12:50;;;;;;;9.37;6.40;;;26.20;99.90;;;;;;5014789;28;20462;-47
2022/06/27 06:15:18;;;;;;;6.60;4.80;;;26.40;99.90;;;;;;5021585;28;20423;-49
2022/06/27 06:17:46;;;;;;;6.03;5.43;;;26.70;99.90;;;;;;5021475;28;20448;-48
2022/06/27 06:20:13;;;;;;;4.70;4.30;;;27.00;99.90;;;;;;5021169;28;20467;-49
2022/06/27 06:22:41;;;;;;;5.80;5.17;;;27.10;99.90;;;;;;5022097;28;20469;-47
2022/06/27 06:25:08;;;;;;;5.17;4.73;;;27.40;99.90;;;;;;5021743;28;20442;-45
2022/06/27 06:27:36;;;;;;;5.70;5.20;;;27.90;99.90;;;;;;5022620;28;20434;-49
2022/06/27 06:30:07;;;;;;;6.10;4.50;;;28.00;99.90;;;;;;5022276;28;20447;-49
2022/06/27 06:32:36;;;;;;;5.90;5.43;;;28.10;99.90;;;;;;5020349;28;20470;-47
2022/06/27 06:35:05;;;;;;;6.33;5.73;;;28.40;99.90;;;;;;5021673;28;20442;-51
2022/06/27 06:37:33;;;;;;;11.93;5.47;;;28.50;99.90;;;;;;5021172;28;20466;-49
2022/06/27 06:40:02;;;;;;;7.20;5.67;;;28.60;99.90;;;;;;5021623;28;20442;-48
2022/06/27 06:42:30;;;;;;;6.50;5.60;;;28.50;99.90;;;;;;5029786;28;20660;-45
2022/06/27 06:44:57;;;;;;;5.70;4.93;;;28.70;99.90;;;;;;5025712;28;20601;-48
2022/06/27 06:47:26;;;;;;;6.90;5.17;;;28.90;99.90;;;;;;5026558;28;20545;-47
2022/06/27 06:49:53;;;;;;;6.33;5.73;;;29.10;99.90;;;;;;5030885;28;20435;-46
2022/06/27 06:52:20;;;;;;;7.77;5.00;;;29.10;99.90;;;;;;5018054;28;20468;-48
2022/06/27 06:54:48;;;;;;;6.70;5.20;;;29.60;99.90;;;;;;5027241;28;20438;-48
2022/06/27 06:57:18;;;;;;;4.93;4.43;;;29.70;99.90;;;;;;5034676;28;20438;-50
2022/06/27 06:59:45;;;;;;;5.20;4.63;;;30.10;99.90;;;;;;5023898;28;20620;-47
2022/06/27 07:02:13;;;;;;;18.10;6.17;;;30.50;99.90;;;;;;5017747;28;20471;-49
2022/06/27 07:04:40;;;;;;;7.10;4.47;;;30.90;99.90;;;;;;5019393;28;20445;-45
2022/06/27 07:07:09;;;;;;;7.23;5.30;;;31.70;99.90;;;;;;5020744;28;20501;-50
2022/06/27 07:09:36;;;;;;;8.73;5.67;;;32.10;99.90;;;;;;5031193;28;20436;-46
2022/06/27 07:12:05;;;;;;;7.03;5.10;;;33.60;99.90;;;;;;5029404;28;20508;-47
2022/06/27 07:14:32;;;;;;;5.03;4.63;;;34.40;98.20;;;;;;5020735;28;20513;-45
2022/06/27 07:17:00;;;;;;;4.40;3.90;;;34.80;96.60;;;;;;5020925;28;20435;-46
2022/06/27 07:19:29;;;;;;;5.03;4.63;;;35.50;94.30;;;;;;5021094;28;20698;-48
2022/06/27 07:21:56;;;;;;;7.63;4.50;;;36.20;92.00;;;;;;5020257;28;20450;-47
2022/06/27 07:24:25;;;;;;;5.33;4.17;;;36.00;90.80;;;;;;5019818;28;20443;-50
2022/06/27 07:26:53;;;;;;;4.80;4.40;;;35.20;91.10;;;;;;5020283;28;20502;-47
2022/06/27 07:29:21;;;;;;;8.13;4.57;;;36.00;89.70;;;;;;5017549;28;20443;-50
2022/06/27 07:31:49;;;;;;;6.23;3.83;;;36.50;87.30;;;;;;5027637;28;20482;-49
2022/06/27 07:34:19;;;;;;;4.03;3.73;;;36.40;86.00;;;;;;5018120;28;20777;-52
2022/06/27 07:36:52;;;;;;;5.13;4.23;;;36.40;83.70;;;;;;5013268;28;20442;-49
2022/06/27 07:39:19;;;;;;;4.63;3.90;;;37.30;81.80;;;;;;5019915;28;20445;-49
2022/06/27 07:41:49;;;;;;;3.70;3.40;;;37.60;79.10;;;;;;5012745;28;20453;-50
2022/06/27 07:44:17;;;;;;;4.70;4.30;;;37.70;78.40;;;;;;5023108;28;20541;-48
2022/06/27 07:46:44;;;;;;;5.13;4.07;;;38.60;75.00;;;;;;5032549;28;20821;-50
2022/06/27 07:49:12;;;;;;;3.53;3.33;;;38.70;73.60;;;;;;5020351;28;20438;-45
2022/06/27 07:51:39;;;;;;;3.87;3.60;;;38.40;73.10;;;;;;5019900;28;20434;-50
2022/06/27 07:54:07;;;;;;;3.90;3.60;;;38.30;71.80;;;;;;5020027;28;20438;-47
2022/06/27 07:56:34;;;;;;;4.33;3.97;;;38.70;69.90;;;;;;5020294;28;20446;-51
2022/06/27 07:59:22;;;;;;;6.20;4.20;;;39.50;68.30;;;;;;5020966;28;20548;-52
2022/06/27 08:01:49;;;;;;;4.93;4.07;;;40.20;65.80;;;;;;5021895;28;20494;-48
2022/06/27 08:04:18;;;;;;;6.00;4.77;;;40.80;63.90;;;;;;5024067;28;20466;-47
2022/06/27 08:06:49;;;;;;;4.10;3.80;;;41.60;61.10;;;;;;5030870;28;20709;-47
2022/06/27 08:09:22;;;;;;;4.43;4.03;;;41.50;60.50;;;;;;5020138;28;20473;-47
2022/06/27 08:11:50;;;;;;;5.77;4.10;;;41.60;59.80;;;;;;5025763;28;20512;-48
2022/06/27 08:14:17;;;;;;;4.43;3.90;;;42.40;58.50;;;;;;5019442;28;20443;-48
2022/06/27 08:16:51;;;;;;;5.20;4.70;;;40.70;59.40;;;;;;5019961;28;20442;-48
2022/06/27 08:19:19;;;;;;;4.63;3.50;;;40.30;59.70;;;;;;5026041;28;20439;-49
2022/06/27 08:21:47;;;;;;;4.63;4.07;;;40.50;59.70;;;;;;5014647;28;20469;-45
2022/06/27 08:24:18;;;;;;;3.70;3.50;;;40.80;59.30;;;;;;5019125;28;20632;-46
2022/06/27 08:26:49;;;;;;;6.50;3.93;;;41.20;57.70;;;;;;5019193;28;20812;-45
2022/06/27 08:29:17;;;;;;;3.43;3.23;;;41.70;57.80;;;;;;5019387;28;20443;-49
2022/06/27 08:31:46;;;;;;;12.37;3.67;;;41.10;56.90;;;;;;5018764;28;20442;-49
2022/06/27 08:34:14;;;;;;;4.07;3.77;;;41.00;56.80;;;;;;5018732;28;20784;-45
2022/06/27 08:36:42;;;;;;;6.73;3.73;;;40.10;57.30;;;;;;5019278;28;20446;-45
2022/06/27 08:39:20;;;;;;;4.33;4.03;;;39.40;58.90;;;;;;5018752;28;20483;-50
2022/06/27 08:41:47;;;;;;;4.73;3.53;;;40.10;58.70;;;;;;5011030;28;20434;-47
2022/06/27 08:44:16;;;;;;;3.77;3.27;;;41.70;56.70;;;;;;5018926;28;20458;-47
2022/06/27 08:46:46;;;;;;;8.63;3.20;;;41.10;55.70;;;;;;5034433;28;20473;-50
2022/06/27 08:49:15;;;;;;;4.07;3.60;;;40.70;57.00;;;;;;5017827;28;20493;-52
2022/06/27 08:51:43;;;;;;;3.87;3.63;;;42.70;55.10;;;;;;5015091;28;20434;-46
2022/06/27 08:54:11;;;;;;;3.97;3.67;;;43.10;53.80;;;;;;5019300;28;20454;-47
2022/06/27 08:56:40;;;;;;;4.50;4.10;;;44.30;52.20;;;;;;5022163;28;20667;-50
2022/06/27 08:59:08;;;;;;;4.53;3.73;;;43.60;52.10;;;;;;5022990;28;20443;-48
2022/06/27 09:01:36;;;;;;;4.17;3.83;;;43.80;51.60;;;;;;5022153;28;20438;-50
2022/06/27 09:04:06;;;;;;;3.60;3.40;;;43.60;50.90;;;;;;5023125;28;20514;-49
2022/06/27 09:06:54;;;;;;;3.60;3.37;;;44.00;51.20;;;;;;5022943;28;20486;-49
2022/06/27 09:09:27;;;;;;;3.97;3.67;;;43.80;49.90;;;;;;5017076;28;20445;-50
2022/06/27 09:11:56;;;;;;;4.53;3.90;;;44.00;50.20;;;;;;5022344;28;20450;-47
2022/06/27 09:14:40;;;;;;;4.10;3.80;;;44.60;50.00;;;;;;5033651;28;20447;-48
2022/06/27 09:17:14;;;;;;;4.40;4.00;;;45.50;48.60;;;;;;5027434;28;20444;-50
2022/06/27 09:19:54;;;;;;;3.83;3.63;;;45.10;47.60;;;;;;5029368;28;20784;-45
2022/06/27 09:22:25;;;;;;;4.00;3.60;;;44.60;47.70;;;;;;5031601;28;20801;-48
2022/06/27 09:25:12;;;;;;;3.23;3.03;;;43.60;47.10;;;;;;5022992;28;20442;-45
2022/06/27 09:27:50;;;;;;;6.43;4.47;;;43.10;48.60;;;;;;5019481;28;20848;-45
2022/06/27 09:30:18;;;;;;;3.30;3.10;;;44.10;47.60;;;;;;5022527;28;20811;-46
2022/06/27 09:32:45;;;;;;;3.90;3.50;;;45.20;45.60;;;;;;5028812;28;20515;-53
2022/06/27 09:35:25;;;;;;;3.50;3.20;;;44.20;46.50;;;;;;5027097;28;20434;-49
2022/06/27 09:37:57;;;;;;;3.63;3.43;;;42.70;47.30;;;;;;5020986;28;20438;-48
2022/06/27 09:40:27;;;;;;;4.30;3.53;;;40.50;49.90;;;;;;5016891;28;20449;-48
2022/06/27 09:43:04;;;;;;;4.03;3.63;;;38.70;53.00;;;;;;5022307;28;20450;-48
2022/06/27 09:45:32;;;;;;;3.40;3.10;;;37.30;55.10;;;;;;5022934;28;20645;-49
2022/06/27 09:48:07;;;;;;;3.90;3.03;;;36.00;55.60;;;;;;5022349;28;20501;-48
2022/06/27 09:50:39;;;;;;;3.50;3.30;;;35.40;55.60;;;;;;5022436;28;20440;-50
2022/06/27 09:53:08;;;;;;;3.73;3.53;;;34.60;56.70;;;;;;5021857;28;20792;-48
2022/06/27 09:55:36;;;;;;;4.00;3.20;;;34.20;57.70;;;;;;5022541;28;20494;-48
2022/06/27 09:58:06;;;;;;;4.10;3.80;;;34.20;58.50;;;;;;5022078;28;20852;-48
2022/06/27 10:00:33;;;;;;;4.00;3.23;;;34.40;59.90;;;;;;5024456;28;20469;-47
2022/06/27 10:03:02;;;;;;;4.90;3.93;;;34.50;59.30;;;;;;5031041;28;20515;-48
2022/06/27 10:05:29;;;;;;;5.10;3.37;;;34.20;59.40;;;;;;5021662;28;20435;-46
2022/06/27 10:08:02;;;;;;;4.77;4.37;;;34.00;59.00;;;;;;5020745;28;20478;-47
2022/06/27 10:11:18;;;;;;;4.37;3.97;;;33.80;60.80;;;;;;5022699;28;20633;-47
2022/06/27 10:14:22;;;;;;;3.87;3.60;;;33.50;59.60;;;;;;5008760;28;20477;-51
2022/06/27 10:16:59;;;;;;;7.00;3.37;;;33.50;60.90;;;;;;5017909;28;20451;-48
2022/06/27 10:19:28;;;;;;;4.10;3.80;;;33.60;59.50;;;;;;5016232;28;20454;-45
2022/06/27 10:21:57;;;;;;;3.90;3.50;;;33.70;60.90;;;;;;5009173;28;20790;-46
2022/06/27 10:24:24;;;;;;;3.90;3.60;;;33.80;60.70;;;;;;5013258;28;20450;-50
2022/06/27 10:26:56;;;;;;;3.60;3.33;;;33.80;59.00;;;;;;5016637;28;20732;-49
2022/06/27 10:29:42;;;;;;;4.20;3.80;;;33.80;59.80;;;;;;5014217;28;20428;-47
2022/06/27 10:32:38;;;;;;;4.70;4.33;;;33.80;59.60;;;;;;5017326;28;20836;-53
2022/06/27 10:35:07;;;;;;;5.50;4.33;;;33.70;60.80;;;;;;5013529;28;20592;-45
2022/06/27 10:37:36;;;;;;;3.80;3.33;;;33.70;60.80;;;;;;5022882;28;20453;-48
2022/06/27 10:40:22;;;;;;;4.70;4.03;;;33.60;62.30;;;;;;5017586;28;20770;-47
2022/06/27 10:42:54;;;;;;;7.90;3.80;;;33.70;61.10;;;;;;5017030;28;20470;-47
2022/06/27 10:45:29;;;;;;;6.83;4.77;;;33.60;61.60;;;;;;5017845;28;20442;-49
2022/06/27 10:47:58;;;;;;;4.70;4.30;;;33.40;62.20;;;;;;5021160;28;20476;-49
2022/06/27 10:50:28;;;;;;;4.10;3.80;;;33.10;63.10;;;;;;5021122;28;20443;-51
2022/06/27 10:53:24;;;;;;;4.37;3.97;;;33.20;63.70;;;;;;5023797;28;20464;-47
2022/06/27 10:55:53;;;;;;;4.80;4.47;;;33.20;63.90;;;;;;5014018;28;20437;-43
2022/06/27 10:58:22;;;;;;;3.50;3.27;;;33.40;63.80;;;;;;5020490;28;20489;-48
2022/06/27 11:00:50;;;;;;;4.17;3.80;;;33.50;62.80;;;;;;5013211;28;20722;-51
2022/06/27 11:03:26;;;;;;;4.30;3.90;;;33.60;63.40;;;;;;5020365;28;20466;-50
2022/06/27 11:06:03;;;;;;;9.23;3.93;;;33.60;63.20;;;;;;5028933;28;20534;-46
2022/06/27 11:08:36;;;;;;;5.03;4.10;;;33.50;64.30;;;;;;5020945;28;20474;-47
2022/06/27 11:11:05;;;;;;;4.03;3.23;;;33.60;63.90;;;;;;5020549;28;20514;-51
2022/06/27 11:13:48;;;;;;;9.50;3.90;;;33.70;63.80;;;;;;5020823;28;20442;-47
2022/06/27 11:16:18;;;;;;;6.93;4.87;;;34.00;63.50;;;;;;5020760;28;20449;-48
2022/06/27 11:18:49;;;;;;;9.90;5.73;;;34.10;63.50;;;;;;5019835;28;20453;-48
2022/06/27 11:21:26;;;;;;;6.37;4.20;;;34.10;64.60;;;;;;5020485;28;20438;-47
2022/06/27 11:24:01;;;;;;;3.93;3.63;;;34.20;63.30;;;;;;5017740;28;20473;-45
2022/06/27 11:26:30;;;;;;;4.60;4.20;;;33.80;63.60;;;;;;5019975;28;20437;-44
2022/06/27 11:32:05;;;;;;;7.73;4.53;;;33.50;65.30;;;;;;5020141;28;20496;-51
2022/06/27 11:34:42;;;;;;;4.20;3.90;;;33.70;65.20;;;;;;5019757;28;20829;-45
2022/06/27 11:37:22;;;;;;;4.70;4.17;;;33.90;64.50;;;;;;5033626;28;20441;-50
2022/06/27 11:40:18;;;;;;;4.20;3.90;;;34.00;63.30;;;;;;5030127;28;20442;-51
2022/06/27 11:42:46;;;;;;;4.80;4.40;;;33.90;64.50;;;;;;5003332;28;20459;-49
2022/06/27 11:45:16;;;;;;;4.37;4.07;;;34.00;63.90;;;;;;5019806;28;20493;-52
2022/06/27 11:47:45;;;;;;;4.10;3.80;;;33.90;63.70;;;;;;5020074;28;20478;-50
2022/06/27 11:50:17;;;;;;;7.73;5.10;;;33.70;64.40;;;;;;5015937;28;20498;-48
2022/06/27 11:52:48;;;;;;;4.00;3.70;;;33.70;65.20;;;;;;5019130;28;20478;-51
2022/06/27 11:55:17;;;;;;;5.93;5.10;;;33.70;65.70;;;;;;5019862;28;20440;-48
2022/06/27 11:57:49;;;;;;;4.00;3.70;;;34.00;65.80;;;;;;5019786;28;20450;-47
2022/06/27 12:00:22;;;;;;;4.83;4.43;;;34.20;65.10;;;;;;5016736;28;20438;-48
2022/06/27 12:03:10;;;;;;;5.07;4.67;;;34.30;63.80;;;;;;5017011;28;20696;-45
2022/06/27 12:05:40;;;;;;;8.03;5.73;;;33.90;64.50;;;;;;5020514;28;20473;-50
2022/06/27 12:08:10;;;;;;;5.23;4.07;;;33.80;64.10;;;;;;5019303;28;20481;-48
2022/06/27 12:11:17;;;;;;;4.37;3.97;;;33.90;64.70;;;;;;5019896;28;20458;-51
2022/06/27 12:13:36;;;;;;;4.27;3.87;;;34.10;63.80;;;;;;5019218;28;20872;-51
2022/06/27 12:16:06;;;;;;;4.40;3.97;;;34.40;63.80;;;;;;5015699;28;20445;-46
2022/06/27 12:18:46;;;;;;;3.83;3.40;;;34.70;63.00;;;;;;5019218;28;20454;-47
2022/06/27 12:21:13;;;;;;;8.40;3.47;;;34.70;61.70;;;;;;5007977;28;20431;-48
2022/06/27 12:23:41;;;;;;;3.53;3.27;;;34.70;61.90;;;;;;5012635;28;20458;-47
2022/06/27 12:26:09;;;;;;;4.10;3.80;;;34.80;61.70;;;;;;5019232;28;20761;-49
2022/06/27 12:28:37;;;;;;;3.70;3.50;;;34.90;61.30;;;;;;5019215;28;20676;-47
2022/06/27 12:31:04;;;;;;;3.47;3.27;;;34.80;60.80;;;;;;5014524;28;20443;-49
2022/06/27 12:33:31;;;;;;;3.90;3.60;;;34.80;60.90;;;;;;5008964;28;20701;-45
2022/06/27 12:35:58;;;;;;;3.20;2.90;;;34.70;61.50;;;;;;5019484;28;20742;-49
2022/06/27 12:38:25;;;;;;;3.60;3.40;;;34.60;61.10;;;;;;5008458;28;20503;-46
2022/06/27 12:41:11;;;;;;;4.27;3.97;;;34.60;62.40;;;;;;5015347;28;20435;-47
2022/06/27 12:43:40;;;;;;;4.03;3.73;;;34.60;62.30;;;;;;5019458;28;20692;-50
2022/06/27 12:46:07;;;;;;;3.00;2.80;;;34.60;62.20;;;;;;5019336;28;20465;-50
2022/06/27 12:48:37;;;;;;;3.17;3.00;;;34.70;62.60;;;;;;5019140;28;20513;-48
2022/06/27 12:51:04;;;;;;;3.87;3.43;;;34.70;62.60;;;;;;5019326;28;20453;-50
2022/06/27 12:53:32;;;;;;;3.57;3.37;;;34.80;62.80;;;;;;5019019;28;20462;-49
2022/06/27 12:56:01;;;;;;;8.30;3.50;;;34.90;63.20;;;;;;5019481;28;20464;-47
2022/06/27 12:58:28;;;;;;;6.97;2.90;;;34.90;62.60;;;;;;5018840;28;20438;-51
2022/06/27 13:00:56;;;;;;;3.47;3.03;;;34.80;62.50;;;;;;5019308;28;20442;-46
2022/06/27 13:03:23;;;;;;;4.00;3.50;;;34.60;62.90;;;;;;5019023;28;20486;-51
2022/06/27 13:05:51;;;;;;;3.20;3.00;;;34.60;63.70;;;;;;5012076;28;20434;-50